createdAt,value
2023-05-10T00:01:14.701Z,59.57
2023-05-10T00:03:42.729Z,59.51
2023-05-10T00:06:10.801Z,59.69
2023-05-10T00:08:38.842Z,59.53
2023-05-10T00:11:06.759Z,59.69
2023-05-10T00:13:34.768Z,59.83
2023-05-10T00:16:02.843Z,59.95
2023-05-10T00:18:30.793Z,60.11
2023-05-10T00:20:58.686Z,60.22
2023-05-10T00:23:26.644Z,60.35
2023-05-10T00:25:54.545Z,60.38
2023-05-10T00:28:22.400Z,60.63
2023-05-10T00:30:50.358Z,60.59
2023-05-10T00:33:18.325Z,60.69
2023-05-10T00:35:46.217Z,60.87
2023-05-10T00:38:14.268Z,60.67
2023-05-10T00:40:42.933Z,60.85
2023-05-10T00:43:15.920Z,60.92
2023-05-10T00:45:44.727Z,61.11
2023-05-10T00:48:13.592Z,61.13
2023-05-10T00:50:41.739Z,61.12
2023-05-10T00:53:10.438Z,61.33
2023-05-10T00:55:39.305Z,61.09
2023-05-10T00:58:07.256Z,61.01
2023-05-10T01:00:35.593Z,61.09
2023-05-10T01:03:03.959Z,61.08
2023-05-10T01:05:32.925Z,61.32
2023-05-10T01:08:01.049Z,61.23
2023-05-10T01:10:29.160Z,61.31
2023-05-10T01:13:00.200Z,61.33
2023-05-10T01:15:28.487Z,61.41
2023-05-10T01:17:58.163Z,61.50
2023-05-10T01:20:33.098Z,61.48
2023-05-10T01:23:31.979Z,61.58
2023-05-10T01:26:07.454Z,61.52
2023-05-10T01:29:12.776Z,61.57
2023-05-10T01:32:17.661Z,61.55
2023-05-10T01:35:00.771Z,61.72
2023-05-10T01:37:43.235Z,61.86
2023-05-10T01:40:31.411Z,61.94
2023-05-10T01:43:06.427Z,62.13
2023-05-10T01:45:52.137Z,62.23
2023-05-10T01:48:22.125Z,62.37
2023-05-10T01:50:52.389Z,62.50
2023-05-10T01:53:22.354Z,62.89
2023-05-10T01:55:54.804Z,62.75
2023-05-10T01:58:32.650Z,62.92
2023-05-10T02:01:04.387Z,62.81
2023-05-10T02:03:36.344Z,63.17
2023-05-10T02:06:06.636Z,63.12
2023-05-10T02:08:37.671Z,63.49
2023-05-10T02:11:06.762Z,63.35
2023-05-10T02:13:37.522Z,63.55
2023-05-10T02:16:06.750Z,63.42
2023-05-10T02:18:37.618Z,63.67
2023-05-10T02:21:06.044Z,63.61
2023-05-10T02:23:34.822Z,63.72
2023-05-10T02:26:06.826Z,63.85
2023-05-10T02:28:37.267Z,63.98
2023-05-10T02:31:07.057Z,64.09
2023-05-10T02:33:36.358Z,63.95
2023-05-10T02:36:05.022Z,64.03
2023-05-10T02:38:35.800Z,64.13
2023-05-10T02:41:06.497Z,64.25
2023-05-10T02:43:34.967Z,64.46
2023-05-10T02:46:03.369Z,64.39
2023-05-10T02:48:31.395Z,64.67
2023-05-10T02:51:06.469Z,64.49
2023-05-10T02:53:37.156Z,64.63
2023-05-10T02:56:09.096Z,64.83
2023-05-10T02:58:37.123Z,65.08
2023-05-10T03:01:05.324Z,65.11
2023-05-10T03:03:33.311Z,65.47
2023-05-10T03:06:01.498Z,65.40
2023-05-10T03:08:32.963Z,65.39
2023-05-10T03:11:40.794Z,65.48
2023-05-10T03:14:41.695Z,65.33
2023-05-10T03:17:16.868Z,65.71
2023-05-10T03:19:57.432Z,65.84
2023-05-10T03:22:31.757Z,65.64
2023-05-10T03:25:03.617Z,66.03
2023-05-10T03:27:32.629Z,66.12
2023-05-10T03:30:08.809Z,66.10
2023-05-10T03:32:38.115Z,66.35
2023-05-10T03:35:10.730Z,66.68
2023-05-10T03:37:38.906Z,66.87
2023-05-10T03:40:08.001Z,66.89
2023-05-10T03:42:37.258Z,67.40
2023-05-10T03:45:05.601Z,67.48
2023-05-10T03:47:33.695Z,67.99
2023-05-10T03:50:02.788Z,67.34
2023-05-10T03:52:30.969Z,67.28
2023-05-10T03:54:58.920Z,67.28
2023-05-10T03:57:26.850Z,67.36
2023-05-10T03:59:54.775Z,67.71
2023-05-10T04:02:22.829Z,67.62
2023-05-10T04:04:51.724Z,67.40
2023-05-10T04:07:20.607Z,67.48
2023-05-10T04:09:48.837Z,67.69
2023-05-10T04:12:16.752Z,67.33
2023-05-10T04:14:44.749Z,67.62
2023-05-10T04:17:12.883Z,67.69
2023-05-10T04:19:40.860Z,67.94
2023-05-10T04:22:08.771Z,67.99
2023-05-10T04:24:36.685Z,67.86
2023-05-10T04:27:04.585Z,68.11
2023-05-10T04:29:32.596Z,67.94
2023-05-10T04:32:00.465Z,67.75
2023-05-10T04:34:28.564Z,67.71
2023-05-10T04:36:56.452Z,67.71
2023-05-10T04:39:24.309Z,67.65
2023-05-10T04:41:52.207Z,67.53
2023-05-10T04:44:20.197Z,67.44
2023-05-10T04:46:48.180Z,67.33
2023-05-10T04:49:16.355Z,67.50
2023-05-10T04:51:44.378Z,67.24
2023-05-10T04:54:12.352Z,67.13
2023-05-10T04:56:40.333Z,66.78
2023-05-10T04:59:08.344Z,66.88
2023-05-10T05:01:36.220Z,66.43
2023-05-10T05:04:04.481Z,66.14
2023-05-10T05:06:32.427Z,66.23
2023-05-10T05:09:00.476Z,65.82
2023-05-10T05:11:28.521Z,65.44
2023-05-10T05:13:56.433Z,65.36
2023-05-10T05:16:24.390Z,65.30
2023-05-10T05:18:52.332Z,64.74
2023-05-10T05:21:20.941Z,64.77
2023-05-10T05:23:48.881Z,64.21
2023-05-10T05:26:17.202Z,63.92
2023-05-10T05:28:45.308Z,64.09
2023-05-10T05:31:13.382Z,63.63
2023-05-10T05:33:41.364Z,63.31
2023-05-10T05:36:09.544Z,62.60
2023-05-10T05:38:37.477Z,61.87
2023-05-10T05:41:05.341Z,61.84
2023-05-10T05:43:33.658Z,61.45
2023-05-10T05:46:02.523Z,61.58
2023-05-10T05:48:31.523Z,61.05
2023-05-10T05:50:59.442Z,60.27
2023-05-10T05:53:27.376Z,59.54
2023-05-10T05:55:57.269Z,59.80
2023-05-10T05:58:26.612Z,60.17
2023-05-10T06:00:55.058Z,59.33
2023-05-10T06:03:23.085Z,59.42
2023-05-10T06:05:51.319Z,59.16
2023-05-10T06:08:19.239Z,58.82
2023-05-10T06:10:47.175Z,58.23
2023-05-10T06:13:15.223Z,58.01
2023-05-10T06:15:43.107Z,57.86
2023-05-10T06:18:11.086Z,57.57
2023-05-10T06:20:39.660Z,57.17
2023-05-10T06:23:07.683Z,56.26
2023-05-10T06:25:35.589Z,55.86
2023-05-10T06:28:03.604Z,55.12
2023-05-10T06:30:31.717Z,55.57
2023-05-10T06:32:59.889Z,55.30
2023-05-10T06:35:28.024Z,55.97
2023-05-10T06:37:56.509Z,54.74
2023-05-10T06:40:24.486Z,55.45
2023-05-10T06:42:52.505Z,54.70
2023-05-10T06:45:20.702Z,55.20
2023-05-10T06:47:49.351Z,54.96
2023-05-10T06:50:17.351Z,54.95
2023-05-10T06:52:46.574Z,54.32
2023-05-10T06:55:14.691Z,54.45
2023-05-10T06:57:42.863Z,54.79
2023-05-10T07:00:11.376Z,54.28
2023-05-10T07:02:39.322Z,54.50
2023-05-10T07:05:07.842Z,54.35
2023-05-10T07:07:36.115Z,53.89
2023-05-10T07:10:04.634Z,52.73
2023-05-10T07:12:32.700Z,53.20
2023-05-10T07:15:00.825Z,53.11
2023-05-10T07:17:29.035Z,53.77
2023-05-10T07:19:57.576Z,52.50
2023-05-10T07:22:25.899Z,52.88
2023-05-10T07:24:54.866Z,53.12
2023-05-10T07:27:22.749Z,53.41
2023-05-10T07:29:50.677Z,52.78
2023-05-10T07:32:19.032Z,52.61
2023-05-10T07:34:47.328Z,51.72
2023-05-10T07:37:15.334Z,51.51
2023-05-10T07:39:43.393Z,50.83
2023-05-10T07:42:11.303Z,50.95
2023-05-10T07:44:39.197Z,51.47
2023-05-10T07:47:07.125Z,50.84
2023-05-10T07:49:35.187Z,51.39
2023-05-10T07:52:04.459Z,50.53
2023-05-10T07:54:32.491Z,50.33
2023-05-10T07:57:01.710Z,50.11
2023-05-10T07:59:29.675Z,50.58
2023-05-10T08:01:57.648Z,50.22
2023-05-10T08:04:25.672Z,50.66
2023-05-10T08:06:53.597Z,50.61
2023-05-10T08:09:25.136Z,49.52
2023-05-10T08:11:53.619Z,49.57
2023-05-10T08:14:21.624Z,49.40
2023-05-10T08:16:49.661Z,49.42
2023-05-10T08:19:20.527Z,49.64
2023-05-10T08:21:48.770Z,49.85
2023-05-10T08:24:16.870Z,49.24
2023-05-10T08:26:44.830Z,49.95
2023-05-10T08:29:12.916Z,48.88
2023-05-10T08:31:48.459Z,48.54
2023-05-10T08:34:16.953Z,48.75
2023-05-10T08:36:44.892Z,48.99
2023-05-10T08:39:22.815Z,48.36
2023-05-10T08:42:02.468Z,48.79
2023-05-10T08:44:33.401Z,48.66
2023-05-10T08:47:06.541Z,48.54
2023-05-10T08:49:35.082Z,48.22
2023-05-10T08:52:06.618Z,48.38
2023-05-10T08:54:37.560Z,47.96
2023-05-10T08:57:05.942Z,47.83
2023-05-10T08:59:34.243Z,47.62
2023-05-10T09:02:03.398Z,48.43
2023-05-10T09:04:32.357Z,46.78
2023-05-10T09:07:00.685Z,47.32
2023-05-10T09:09:29.214Z,46.72
2023-05-10T09:11:57.409Z,47.40
2023-05-10T09:14:26.451Z,47.57
2023-05-10T09:16:56.246Z,47.37
2023-05-10T09:19:24.387Z,46.70
2023-05-10T09:21:52.406Z,46.85
2023-05-10T09:24:20.471Z,46.32
2023-05-10T09:26:50.014Z,46.71
2023-05-10T09:29:18.227Z,46.81
2023-05-10T09:31:57.500Z,45.42
2023-05-10T09:34:36.633Z,45.40
2023-05-10T09:37:05.444Z,44.92
2023-05-10T09:39:33.451Z,45.24
2023-05-10T09:42:04.911Z,46.11
2023-05-10T09:44:34.383Z,45.93
2023-05-10T09:47:03.413Z,44.41
2023-05-10T09:49:31.726Z,44.60
2023-05-10T09:52:07.126Z,44.91
2023-05-10T09:54:37.538Z,44.72
2023-05-10T09:57:06.020Z,44.17
2023-05-10T09:59:35.865Z,44.49
2023-05-10T10:02:04.283Z,43.60
2023-05-10T10:04:32.810Z,43.31
2023-05-10T10:07:05.575Z,43.61
2023-05-10T10:09:35.197Z,43.18
2023-05-10T10:12:04.615Z,43.09
2023-05-10T10:14:32.686Z,42.57
2023-05-10T10:19:36.542Z,42.45
2023-05-10T10:22:05.673Z,42.43
2023-05-10T10:24:33.875Z,41.96
2023-05-10T10:27:22.670Z,41.80
2023-05-10T10:29:53.476Z,42.85
2023-05-10T10:32:39.123Z,42.25
2023-05-10T10:35:09.466Z,42.31
2023-05-10T10:37:48.605Z,41.72
2023-05-10T10:40:34.686Z,42.05
2023-05-10T10:43:26.493Z,41.91
2023-05-10T10:46:15.423Z,41.67
2023-05-10T10:49:10.158Z,42.25
2023-05-10T10:51:41.892Z,42.10
2023-05-10T10:54:13.701Z,41.88
2023-05-10T10:56:41.622Z,41.47
2023-05-10T10:59:09.902Z,40.16
2023-05-10T11:01:37.933Z,40.83
2023-05-10T11:04:05.989Z,40.50
2023-05-10T11:06:35.867Z,40.31
2023-05-10T11:09:12.468Z,40.98
2023-05-10T11:11:59.385Z,41.44
2023-05-10T11:14:27.438Z,41.06
2023-05-10T11:16:55.401Z,41.06
2023-05-10T11:19:28.780Z,40.73
2023-05-10T11:22:05.775Z,40.68
2023-05-10T11:24:34.537Z,40.39
2023-05-10T11:27:02.890Z,40.05
2023-05-10T11:29:31.312Z,40.73
2023-05-10T11:32:00.307Z,40.46
2023-05-10T11:34:29.416Z,40.78
2023-05-10T11:36:58.598Z,40.72
2023-05-10T11:39:31.667Z,41.05
2023-05-10T11:42:00.241Z,40.77
2023-05-10T11:44:32.638Z,40.29
2023-05-10T11:47:02.161Z,39.20
2023-05-10T11:49:30.496Z,38.75
2023-05-10T11:52:06.234Z,38.89
2023-05-10T11:54:35.904Z,38.94
2023-05-10T11:57:04.704Z,38.85
2023-05-10T11:59:32.563Z,39.42
2023-05-10T12:02:00.899Z,39.61
2023-05-10T12:04:30.481Z,40.45
2023-05-10T12:06:58.845Z,39.53
2023-05-10T12:09:39.463Z,39.50
2023-05-10T12:12:11.767Z,39.63
2023-05-10T12:14:40.082Z,39.24
2023-05-10T12:17:12.926Z,38.41
2023-05-10T12:19:42.892Z,39.00
2023-05-10T12:22:11.119Z,39.59
2023-05-10T12:24:42.277Z,40.23
2023-05-10T12:27:10.426Z,39.90
2023-05-10T12:29:45.447Z,39.61
2023-05-10T12:32:13.524Z,39.42
2023-05-10T12:34:41.594Z,39.03
2023-05-10T12:37:09.638Z,38.79
2023-05-10T12:39:48.756Z,39.56
2023-05-10T12:42:20.229Z,39.14
2023-05-10T12:44:51.308Z,39.22
2023-05-10T12:47:19.569Z,38.95
2023-05-10T12:49:51.386Z,39.14
2023-05-10T12:52:19.442Z,39.79
2023-05-10T12:54:47.630Z,39.14
2023-05-10T12:57:15.985Z,39.46
2023-05-10T12:59:43.992Z,39.39
2023-05-10T13:02:11.979Z,39.29
2023-05-10T13:04:41.269Z,39.32
2023-05-10T13:07:10.120Z,40.02
2023-05-10T13:09:38.133Z,39.48
2023-05-10T13:12:07.690Z,39.79
2023-05-10T13:14:37.410Z,40.14
2023-05-10T13:17:05.602Z,39.36
2023-05-10T13:19:33.745Z,39.17
2023-05-10T13:22:01.918Z,39.42
2023-05-10T13:24:30.198Z,39.17
2023-05-10T13:26:58.200Z,39.43
2023-05-10T13:29:29.448Z,39.50
2023-05-10T13:31:57.637Z,39.75
2023-05-10T13:34:25.856Z,39.59
2023-05-10T13:36:54.854Z,39.93
2023-05-10T13:39:23.890Z,40.21
2023-05-10T13:41:53.290Z,39.75
2023-05-10T13:44:21.854Z,40.25
2023-05-10T13:46:49.891Z,40.18
2023-05-10T13:49:18.053Z,39.93
2023-05-10T13:51:46.130Z,39.81
2023-05-10T13:54:14.456Z,39.84
2023-05-10T13:56:43.540Z,40.05
2023-05-10T13:59:11.731Z,40.22
2023-05-10T14:01:39.683Z,40.09
2023-05-10T14:04:11.220Z,39.77
2023-05-10T14:06:40.549Z,40.05
2023-05-10T14:09:08.611Z,39.59
2023-05-10T14:11:36.896Z,38.84
2023-05-10T14:14:04.822Z,38.80
2023-05-10T14:16:33.002Z,39.68
2023-05-10T14:19:01.134Z,39.75
2023-05-10T14:21:36.082Z,39.87
2023-05-10T14:24:04.183Z,40.26
2023-05-10T14:26:32.498Z,39.96
2023-05-10T14:29:00.524Z,39.68
2023-05-10T14:31:28.650Z,39.45
2023-05-10T14:33:56.904Z,39.83
2023-05-10T14:36:24.894Z,39.89
2023-05-10T14:38:52.884Z,39.30
2023-05-10T14:41:20.927Z,39.54
2023-05-10T14:43:48.882Z,39.91
2023-05-10T14:46:17.062Z,40.09
2023-05-10T14:48:45.452Z,39.98
2023-05-10T14:51:13.480Z,39.75
2023-05-10T14:53:41.998Z,39.73
2023-05-10T14:56:10.216Z,39.52
2023-05-10T14:58:38.384Z,39.51
2023-05-10T15:01:06.489Z,39.84
2023-05-10T15:03:35.666Z,39.89
2023-05-10T15:06:05.188Z,40.14
2023-05-10T15:08:33.510Z,39.92
2023-05-10T15:11:01.631Z,39.97
2023-05-10T15:13:30.137Z,40.27
2023-05-10T15:15:58.177Z,40.24
2023-05-10T15:18:26.802Z,40.36
2023-05-10T15:20:56.332Z,40.27
2023-05-10T15:23:24.318Z,40.24
2023-05-10T15:25:56.525Z,40.41
2023-05-10T15:28:24.691Z,40.18
2023-05-10T15:30:52.771Z,40.39
2023-05-10T15:33:20.700Z,40.44
2023-05-10T15:35:48.748Z,40.77
2023-05-10T15:38:16.665Z,40.42
2023-05-10T15:40:44.724Z,40.69
2023-05-10T15:43:12.718Z,40.94
2023-05-10T15:45:40.685Z,40.63
2023-05-10T15:48:08.684Z,40.42
2023-05-10T15:50:36.844Z,40.79
2023-05-10T15:53:04.819Z,40.67
2023-05-10T15:55:32.910Z,40.68
2023-05-10T15:58:00.800Z,40.68
2023-05-10T16:00:29.018Z,41.05
2023-05-10T16:02:56.980Z,41.40
2023-05-10T16:05:24.978Z,41.23
2023-05-10T16:07:53.102Z,41.06
2023-05-10T16:10:21.423Z,41.06
2023-05-10T16:12:49.425Z,41.03
2023-05-10T16:15:17.741Z,41.22
2023-05-10T16:17:46.111Z,41.40
2023-05-10T16:20:14.109Z,41.58
2023-05-10T16:22:42.497Z,41.54
2023-05-10T16:25:13.338Z,41.16
2023-05-10T16:27:41.688Z,41.29
2023-05-10T16:30:10.447Z,41.42
2023-05-10T16:32:38.399Z,41.69
2023-05-10T16:35:07.154Z,41.91
2023-05-10T16:37:35.111Z,41.79
2023-05-10T16:40:03.220Z,41.86
2023-05-10T16:42:31.423Z,42.05
2023-05-10T16:45:07.239Z,41.87
2023-05-10T16:47:36.979Z,41.90
2023-05-10T16:50:06.934Z,41.74
2023-05-10T16:52:36.291Z,42.19
2023-05-10T16:55:05.267Z,42.04
2023-05-10T16:57:33.319Z,42.46
2023-05-10T17:00:01.321Z,42.43
2023-05-10T17:02:29.414Z,42.44
2023-05-10T17:04:57.720Z,42.40
2023-05-10T17:07:26.366Z,42.18
2023-05-10T17:09:54.465Z,42.24
2023-05-10T17:12:22.414Z,42.86
2023-05-10T17:14:50.474Z,42.95
2023-05-10T17:17:19.280Z,42.71
2023-05-10T17:19:47.237Z,42.79
2023-05-10T17:22:15.142Z,42.92
2023-05-10T17:24:43.351Z,43.16
2023-05-10T17:27:29.972Z,43.16
2023-05-10T17:29:58.341Z,43.36
2023-05-10T17:32:26.626Z,43.45
2023-05-10T17:34:54.833Z,43.69
2023-05-10T17:37:23.001Z,43.78
2023-05-10T17:39:50.911Z,43.64
2023-05-10T17:42:20.216Z,44.24
2023-05-10T17:44:48.231Z,44.27
2023-05-10T17:47:16.201Z,44.19
2023-05-10T17:49:44.251Z,44.64
2023-05-10T17:52:12.264Z,44.60
2023-05-10T17:54:40.212Z,44.48
2023-05-10T17:57:08.192Z,44.87
2023-05-10T17:59:36.221Z,44.51
2023-05-10T18:02:04.163Z,44.87
2023-05-10T18:04:32.887Z,45.02
2023-05-10T18:07:01.675Z,45.23
2023-05-10T18:09:30.072Z,45.17
2023-05-10T18:11:57.925Z,45.29
2023-05-10T18:14:39.831Z,45.38
2023-05-10T18:17:09.789Z,45.47
2023-05-10T18:19:38.026Z,45.58
2023-05-10T18:22:07.451Z,45.54
2023-05-10T18:24:39.081Z,45.77
2023-05-10T18:27:10.661Z,45.86
2023-05-10T18:29:39.222Z,45.97
2023-05-10T18:32:07.231Z,46.02
2023-05-10T18:34:35.584Z,46.16
2023-05-10T18:37:07.825Z,46.21
2023-05-10T18:39:39.355Z,46.28
2023-05-10T18:42:08.289Z,46.30
2023-05-10T18:44:36.232Z,46.40
2023-05-10T18:47:04.157Z,46.44
2023-05-10T18:49:32.237Z,46.34
2023-05-10T18:52:00.213Z,46.41
2023-05-10T18:54:28.119Z,46.55
2023-05-10T18:56:57.383Z,46.63
2023-05-10T18:59:28.004Z,46.39
2023-05-10T19:01:57.537Z,46.71
2023-05-10T19:04:26.731Z,46.54
2023-05-10T19:06:55.981Z,46.82
2023-05-10T19:09:27.418Z,46.98
2023-05-10T19:11:55.659Z,46.90
2023-05-10T19:14:25.365Z,47.15
2023-05-10T19:16:54.227Z,46.78
2023-05-10T19:19:22.393Z,46.81
2023-05-10T19:21:50.433Z,47.14
2023-05-10T19:24:19.698Z,47.04
2023-05-10T19:26:48.551Z,46.99
2023-05-10T19:29:17.921Z,47.25
2023-05-10T19:31:49.383Z,47.40
2023-05-10T19:34:17.621Z,47.28
2023-05-10T19:36:45.688Z,47.31
2023-05-10T19:39:13.642Z,47.54
2023-05-10T19:41:41.792Z,47.68
2023-05-10T19:44:09.846Z,47.79
2023-05-10T19:46:38.472Z,47.74
2023-05-10T19:49:06.411Z,47.91
2023-05-10T19:51:35.841Z,47.84
2023-05-10T19:54:04.810Z,47.94
2023-05-10T19:56:32.777Z,47.93
2023-05-10T19:59:03.150Z,48.03
2023-05-10T20:01:32.727Z,48.07
2023-05-10T20:04:00.917Z,48.08
2023-05-10T20:06:28.997Z,48.19
2023-05-10T20:08:57.136Z,48.42
2023-05-10T20:11:25.165Z,48.52
2023-05-10T20:13:53.792Z,48.60
2023-05-10T20:16:22.248Z,48.40
2023-05-10T20:18:54.161Z,48.64
2023-05-10T20:21:23.853Z,48.84
2023-05-10T20:23:52.255Z,48.76
2023-05-10T20:26:21.759Z,49.14
2023-05-10T20:28:50.868Z,49.14
2023-05-10T20:31:18.995Z,49.08
2023-05-10T20:33:48.330Z,49.32
2023-05-10T20:36:16.972Z,49.21
2023-05-10T20:38:45.190Z,49.22
2023-05-10T20:41:13.813Z,49.59
2023-05-10T20:43:42.264Z,49.52
2023-05-10T20:46:10.427Z,49.70
2023-05-10T20:48:40.149Z,49.34
2023-05-10T20:51:08.587Z,49.49
2023-05-10T20:53:37.156Z,49.87
2023-05-10T20:56:06.085Z,49.83
2023-05-10T20:58:35.640Z,49.78
2023-05-10T21:01:04.243Z,50.03
2023-05-10T21:03:32.577Z,50.12
2023-05-10T21:06:00.662Z,49.96
2023-05-10T21:08:28.637Z,50.16
2023-05-10T21:10:56.891Z,50.35
2023-05-10T21:13:25.729Z,50.51
2023-05-10T21:15:54.275Z,50.74
2023-05-10T21:18:22.987Z,50.67
2023-05-10T21:20:51.254Z,50.75
2023-05-10T21:23:19.274Z,50.98
2023-05-10T21:25:48.821Z,51.13
2023-05-10T21:28:16.842Z,51.15
2023-05-10T21:30:44.761Z,50.99
2023-05-10T21:33:12.998Z,51.26
2023-05-10T21:35:42.815Z,51.27
2023-05-10T21:38:11.892Z,51.27
2023-05-10T21:40:41.054Z,51.41
2023-05-10T21:43:09.676Z,51.33
2023-05-10T21:45:38.092Z,51.71
2023-05-10T21:48:06.309Z,51.59
2023-05-10T21:50:34.218Z,51.76
2023-05-10T21:53:02.390Z,51.84
2023-05-10T21:55:30.409Z,51.78
2023-05-10T21:57:58.445Z,51.96
2023-05-10T22:00:26.731Z,51.96
2023-05-10T22:02:55.155Z,52.10
2023-05-10T22:05:23.363Z,51.92
2023-05-10T22:07:51.253Z,51.98
2023-05-10T22:10:19.550Z,52.27
2023-05-10T22:12:47.637Z,52.28
2023-05-10T22:17:47.174Z,52.40
2023-05-10T22:20:13.856Z,52.45
2023-05-10T22:22:40.372Z,52.34
2023-05-10T22:25:07.324Z,52.36
2023-05-10T22:27:34.357Z,52.47
2023-05-10T22:30:01.620Z,52.43
2023-05-10T22:32:28.401Z,52.48
2023-05-10T22:34:55.072Z,52.67
2023-05-10T22:37:21.656Z,52.53
2023-05-10T22:39:48.936Z,52.84
2023-05-10T22:42:15.768Z,52.82
2023-05-10T22:44:43.602Z,52.86
2023-05-10T22:47:10.258Z,53.01
2023-05-10T22:49:37.062Z,52.94
2023-05-10T22:52:03.645Z,52.99
2023-05-10T22:54:30.186Z,53.36
2023-05-10T22:56:56.874Z,53.14
2023-05-10T22:59:23.450Z,53.16
2023-05-10T23:01:50.063Z,53.33
2023-05-10T23:04:16.636Z,53.24
2023-05-10T23:06:43.281Z,53.40
2023-05-10T23:09:10.043Z,53.62
2023-05-10T23:11:36.559Z,53.40
2023-05-10T23:14:03.255Z,53.56
2023-05-10T23:16:29.895Z,53.63
2023-05-10T23:18:57.607Z,53.67
2023-05-10T23:21:24.602Z,53.76
2023-05-10T23:23:51.696Z,53.82
2023-05-10T23:26:18.857Z,53.87
2023-05-10T23:28:48.018Z,54.11
2023-05-10T23:31:14.914Z,54.28
2023-05-10T23:33:41.679Z,54.18
2023-05-10T23:36:08.304Z,54.48
2023-05-10T23:38:34.885Z,54.29
2023-05-10T23:41:01.440Z,54.40
2023-05-10T23:43:28.047Z,54.41
2023-05-10T23:45:55.495Z,54.44
2023-05-10T23:48:22.271Z,54.59
2023-05-10T23:50:49.345Z,54.74
2023-05-10T23:53:16.180Z,54.84
2023-05-10T23:55:42.878Z,54.71
2023-05-10T23:58:09.538Z,54.91
